sensor_id;sensor_type;location;lat;lon;timestamp;temperature;humidity
12971;DHT22;6550;48.650;8.774;2024-02-26T00:01:32;7.50;99.90
12971;DHT22;6550;48.650;8.774;2024-02-26T00:06:29;7.50;99.90
12971;DHT22;6550;48.650;8.774;2024-02-26T00:08:59;7.30;99.90
12971;DHT22;6550;48.650;8.774;2024-02-26T00:11:27;7.40;99.90
12971;DHT22;6550;48.650;8.774;2024-02-26T00:13:56;7.50;99.90
12971;DHT22;6550;48.650;8.774;2024-02-26T00:16:28;7.50;99.90
12971;DHT22;6550;48.650;8.774;2024-02-26T00:21:27;7.50;99.90
12971;DHT22;6550;48.650;8.774;2024-02-26T00:23:56;7.80;99.90
12971;DHT22;6550;48.650;8.774;2024-02-26T00:26:25;7.40;99.90
12971;DHT22;6550;48.650;8.774;2024-02-26T00:28:52;7.40;99.90
12971;DHT22;6550;48.650;8.774;2024-02-26T00:31:19;7.40;99.90
12971;DHT22;6550;48.650;8.774;2024-02-26T00:33:47;7.50;99.90
12971;DHT22;6550;48.650;8.774;2024-02-26T00:36:14;7.40;99.90
12971;DHT22;6550;48.650;8.774;2024-02-26T00:38:44;7.40;99.90
12971;DHT22;6550;48.650;8.774;2024-02-26T00:41:12;7.40;99.90
12971;DHT22;6550;48.650;8.774;2024-02-26T00:43:40;7.40;99.90
12971;DHT22;6550;48.650;8.774;2024-02-26T00:46:09;7.50;99.90
12971;DHT22;6550;48.650;8.774;2024-02-26T00:48:36;7.40;99.90
12971;DHT22;6550;48.650;8.774;2024-02-26T00:51:04;7.40;99.90
12971;DHT22;6550;48.650;8.774;2024-02-26T00:53:34;7.50;99.90
12971;DHT22;6550;48.650;8.774;2024-02-26T00:56:01;7.50;99.90
12971;DHT22;6550;48.650;8.774;2024-02-26T00:58:28;7.50;99.90
12971;DHT22;6550;48.650;8.774;2024-02-26T01:00:54;7.50;99.90
12971;DHT22;6550;48.650;8.774;2024-02-26T01:03:24;7.50;99.90
12971;DHT22;6550;48.650;8.774;2024-02-26T01:05:51;7.50;99.90
12971;DHT22;6550;48.650;8.774;2024-02-26T01:08:21;7.90;99.90
12971;DHT22;6550;48.650;8.774;2024-02-26T01:10:48;7.50;99.90
12971;DHT22;6550;48.650;8.774;2024-02-26T01:13:15;7.50;99.90
12971;DHT22;6550;48.650;8.774;2024-02-26T01:15:41;7.50;99.90
12971;DHT22;6550;48.650;8.774;2024-02-26T01:18:11;7.50;99.90
12971;DHT22;6550;48.650;8.774;2024-02-26T01:20:38;7.50;99.90
12971;DHT22;6550;48.650;8.774;2024-02-26T01:23:06;8.00;99.90
12971;DHT22;6550;48.650;8.774;2024-02-26T01:25:35;7.40;99.90
12971;DHT22;6550;48.650;8.774;2024-02-26T01:28:03;7.40;99.90
12971;DHT22;6550;48.650;8.774;2024-02-26T01:30:32;7.40;99.90
12971;DHT22;6550;48.650;8.774;2024-02-26T01:35:26;7.40;99.90
12971;DHT22;6550;48.650;8.774;2024-02-26T01:37:53;7.50;99.90
12971;DHT22;6550;48.650;8.774;2024-02-26T01:40:26;7.50;99.90
12971;DHT22;6550;48.650;8.774;2024-02-26T01:42:55;7.50;99.90
12971;DHT22;6550;48.650;8.774;2024-02-26T01:45:22;7.50;99.90
12971;DHT22;6550;48.650;8.774;2024-02-26T01:47:52;7.50;99.90
12971;DHT22;6550;48.650;8.774;2024-02-26T01:50:22;7.40;99.90
12971;DHT22;6550;48.650;8.774;2024-02-26T01:52:51;8.10;99.90
12971;DHT22;6550;48.650;8.774;2024-02-26T01:55:19;7.50;99.90
12971;DHT22;6550;48.650;8.774;2024-02-26T01:57:49;7.50;99.90
12971;DHT22;6550;48.650;8.774;2024-02-26T02:00:21;7.60;99.90
12971;DHT22;6550;48.650;8.774;2024-02-26T02:02:49;7.60;99.90
12971;DHT22;6550;48.650;8.774;2024-02-26T02:05:17;7.50;99.90
12971;DHT22;6550;48.650;8.774;2024-02-26T02:07:47;7.60;99.90
12971;DHT22;6550;48.650;8.774;2024-02-26T02:10:16;7.60;99.90
12971;DHT22;6550;48.650;8.774;2024-02-26T02:12:49;7.40;99.90
12971;DHT22;6550;48.650;8.774;2024-02-26T02:15:16;7.50;99.90
12971;DHT22;6550;48.650;8.774;2024-02-26T02:17:43;7.50;99.90
12971;DHT22;6550;48.650;8.774;2024-02-26T02:20:16;7.50;99.90
12971;DHT22;6550;48.650;8.774;2024-02-26T02:22:45;7.50;99.90
12971;DHT22;6550;48.650;8.774;2024-02-26T02:25:13;7.50;99.90
12971;DHT22;6550;48.650;8.774;2024-02-26T02:27:43;7.50;99.90
12971;DHT22;6550;48.650;8.774;2024-02-26T02:30:13;7.50;99.90
12971;DHT22;6550;48.650;8.774;2024-02-26T02:35:08;7.50;99.90
12971;DHT22;6550;48.650;8.774;2024-02-26T02:37:35;7.60;99.90
12971;DHT22;6550;48.650;8.774;2024-02-26T02:40:04;7.50;99.90
12971;DHT22;6550;48.650;8.774;2024-02-26T02:42:31;7.70;99.90
12971;DHT22;6550;48.650;8.774;2024-02-26T02:44:58;7.50;99.90
12971;DHT22;6550;48.650;8.774;2024-02-26T02:47:27;7.60;99.90
12971;DHT22;6550;48.650;8.774;2024-02-26T02:49:54;7.70;99.90
12971;DHT22;6550;48.650;8.774;2024-02-26T02:52:23;7.70;99.90
12971;DHT22;6550;48.650;8.774;2024-02-26T02:54:50;7.20;99.90
12971;DHT22;6550;48.650;8.774;2024-02-26T02:57:19;7.90;99.90
12971;DHT22;6550;48.650;8.774;2024-02-26T02:59:46;7.60;99.90
12971;DHT22;6550;48.650;8.774;2024-02-26T03:02:13;7.80;99.90
12971;DHT22;6550;48.650;8.774;2024-02-26T03:04:44;7.80;99.90
12971;DHT22;6550;48.650;8.774;2024-02-26T03:07:11;7.50;99.90
12971;DHT22;6550;48.650;8.774;2024-02-26T03:09:38;7.70;99.90
12971;DHT22;6550;48.650;8.774;2024-02-26T03:12:05;7.60;99.90
12971;DHT22;6550;48.650;8.774;2024-02-26T03:14:31;7.50;99.90
12971;DHT22;6550;48.650;8.774;2024-02-26T03:17:01;7.60;99.90
12971;DHT22;6550;48.650;8.774;2024-02-26T03:19:27;7.40;99.90
12971;DHT22;6550;48.650;8.774;2024-02-26T03:21:54;7.60;99.90
12971;DHT22;6550;48.650;8.774;2024-02-26T03:24:21;7.60;99.90
12971;DHT22;6550;48.650;8.774;2024-02-26T03:29:16;7.50;99.90
12971;DHT22;6550;48.650;8.774;2024-02-26T03:31:45;7.60;99.90
12971;DHT22;6550;48.650;8.774;2024-02-26T03:34:14;7.50;99.90
12971;DHT22;6550;48.650;8.774;2024-02-26T03:36:45;7.30;99.90
12971;DHT22;6550;48.650;8.774;2024-02-26T03:39:12;7.70;99.90
12971;DHT22;6550;48.650;8.774;2024-02-26T03:41:41;7.60;99.90
12971;DHT22;6550;48.650;8.774;2024-02-26T03:44:08;7.50;99.90
12971;DHT22;6550;48.650;8.774;2024-02-26T03:46:36;7.40;99.90
12971;DHT22;6550;48.650;8.774;2024-02-26T03:49:03;7.60;99.90
12971;DHT22;6550;48.650;8.774;2024-02-26T03:51:30;7.50;99.90
12971;DHT22;6550;48.650;8.774;2024-02-26T03:53:58;7.60;99.90
12971;DHT22;6550;48.650;8.774;2024-02-26T03:56:26;7.60;99.90
12971;DHT22;6550;48.650;8.774;2024-02-26T03:58:55;7.60;99.90
12971;DHT22;6550;48.650;8.774;2024-02-26T04:01:22;7.60;99.90
12971;DHT22;6550;48.650;8.774;2024-02-26T04:03:49;7.30;99.90
12971;DHT22;6550;48.650;8.774;2024-02-26T04:06:19;7.60;99.90
12971;DHT22;6550;48.650;8.774;2024-02-26T04:08:49;7.10;99.90
12971;DHT22;6550;48.650;8.774;2024-02-26T04:11:18;7.40;99.90
12971;DHT22;6550;48.650;8.774;2024-02-26T04:13:49;7.80;99.90
12971;DHT22;6550;48.650;8.774;2024-02-26T04:16:20;7.50;99.90
12971;DHT22;6550;48.650;8.774;2024-02-26T04:21:16;7.40;99.90
12971;DHT22;6550;48.650;8.774;2024-02-26T04:23:43;7.40;99.90
12971;DHT22;6550;48.650;8.774;2024-02-26T04:26:10;7.60;99.90
12971;DHT22;6550;48.650;8.774;2024-02-26T04:28:37;7.50;99.90
12971;DHT22;6550;48.650;8.774;2024-02-26T04:31:06;7.60;99.90
12971;DHT22;6550;48.650;8.774;2024-02-26T04:33:34;7.50;99.90
12971;DHT22;6550;48.650;8.774;2024-02-26T04:36:01;7.60;99.90
12971;DHT22;6550;48.650;8.774;2024-02-26T04:40:57;7.50;99.90
12971;DHT22;6550;48.650;8.774;2024-02-26T04:43:23;7.50;99.90
12971;DHT22;6550;48.650;8.774;2024-02-26T04:45:50;7.60;99.90
12971;DHT22;6550;48.650;8.774;2024-02-26T04:48:17;7.60;99.90
12971;DHT22;6550;48.650;8.774;2024-02-26T04:50:44;7.60;99.90
12971;DHT22;6550;48.650;8.774;2024-02-26T04:53:13;7.70;99.90
12971;DHT22;6550;48.650;8.774;2024-02-26T04:55:43;7.60;99.90
12971;DHT22;6550;48.650;8.774;2024-02-26T04:58:12;7.50;99.90
12971;DHT22;6550;48.650;8.774;2024-02-26T05:00:38;7.00;99.90
12971;DHT22;6550;48.650;8.774;2024-02-26T05:03:05;7.70;99.90
12971;DHT22;6550;48.650;8.774;2024-02-26T05:07:59;7.60;99.90
12971;DHT22;6550;48.650;8.774;2024-02-26T05:10:29;7.70;99.90
12971;DHT22;6550;48.650;8.774;2024-02-26T05:12:58;7.50;99.90
12971;DHT22;6550;48.650;8.774;2024-02-26T05:15:24;7.50;99.90
12971;DHT22;6550;48.650;8.774;2024-02-26T05:20:19;7.60;99.90
12971;DHT22;6550;48.650;8.774;2024-02-26T05:22:46;7.60;99.90
12971;DHT22;6550;48.650;8.774;2024-02-26T05:25:17;7.20;99.90
12971;DHT22;6550;48.650;8.774;2024-02-26T05:27:44;7.80;99.90
12971;DHT22;6550;48.650;8.774;2024-02-26T05:30:11;7.60;99.90
12971;DHT22;6550;48.650;8.774;2024-02-26T05:32:38;7.60;99.90
12971;DHT22;6550;48.650;8.774;2024-02-26T05:35:08;8.40;99.90
12971;DHT22;6550;48.650;8.774;2024-02-26T05:37:37;7.50;99.90
12971;DHT22;6550;48.650;8.774;2024-02-26T05:40:09;7.60;99.90
12971;DHT22;6550;48.650;8.774;2024-02-26T05:42:36;7.60;99.90
12971;DHT22;6550;48.650;8.774;2024-02-26T05:45:05;7.40;99.90
12971;DHT22;6550;48.650;8.774;2024-02-26T05:47:33;7.70;99.90
12971;DHT22;6550;48.650;8.774;2024-02-26T05:50:02;7.70;99.90
12971;DHT22;6550;48.650;8.774;2024-02-26T05:54:59;7.60;99.90
12971;DHT22;6550;48.650;8.774;2024-02-26T05:57:26;7.60;99.90
12971;DHT22;6550;48.650;8.774;2024-02-26T05:59:53;7.90;99.90
12971;DHT22;6550;48.650;8.774;2024-02-26T06:02:19;7.60;99.90
12971;DHT22;6550;48.650;8.774;2024-02-26T06:04:51;7.60;99.90
12971;DHT22;6550;48.650;8.774;2024-02-26T06:07:17;7.50;99.90
12971;DHT22;6550;48.650;8.774;2024-02-26T06:09:44;7.40;99.90
12971;DHT22;6550;48.650;8.774;2024-02-26T06:12:11;7.60;99.90
12971;DHT22;6550;48.650;8.774;2024-02-26T06:14:38;7.60;99.90
12971;DHT22;6550;48.650;8.774;2024-02-26T06:17:07;7.50;99.90
12971;DHT22;6550;48.650;8.774;2024-02-26T06:19:36;7.50;99.90
12971;DHT22;6550;48.650;8.774;2024-02-26T06:22:03;7.60;99.90
12971;DHT22;6550;48.650;8.774;2024-02-26T06:24:33;7.60;99.90
12971;DHT22;6550;48.650;8.774;2024-02-26T06:26:59;7.80;99.90
12971;DHT22;6550;48.650;8.774;2024-02-26T06:29:26;7.60;99.90
12971;DHT22;6550;48.650;8.774;2024-02-26T06:34:20;7.70;99.90
12971;DHT22;6550;48.650;8.774;2024-02-26T06:36:47;7.70;99.90
12971;DHT22;6550;48.650;8.774;2024-02-26T06:39:19;7.50;99.90
12971;DHT22;6550;48.650;8.774;2024-02-26T06:41:46;7.60;99.90
12971;DHT22;6550;48.650;8.774;2024-02-26T06:44:13;7.70;99.90
12971;DHT22;6550;48.650;8.774;2024-02-26T06:46:40;7.80;99.90
12971;DHT22;6550;48.650;8.774;2024-02-26T06:49:07;7.80;99.90
12971;DHT22;6550;48.650;8.774;2024-02-26T06:51:34;8.10;99.90
12971;DHT22;6550;48.650;8.774;2024-02-26T06:54:03;7.70;99.90
12971;DHT22;6550;48.650;8.774;2024-02-26T06:56:32;8.10;99.90
12971;DHT22;6550;48.650;8.774;2024-02-26T06:59:02;8.10;99.90
12971;DHT22;6550;48.650;8.774;2024-02-26T07:01:28;8.20;99.90
12971;DHT22;6550;48.650;8.774;2024-02-26T07:03:58;8.00;99.90
12971;DHT22;6550;48.650;8.774;2024-02-26T07:06:25;7.90;99.90
12971;DHT22;6550;48.650;8.774;2024-02-26T07:11:19;8.00;99.90
12971;DHT22;6550;48.650;8.774;2024-02-26T07:13:46;8.10;99.90
12971;DHT22;6550;48.650;8.774;2024-02-26T07:16:16;8.10;99.90
12971;DHT22;6550;48.650;8.774;2024-02-26T07:18:45;8.10;99.90
12971;DHT22;6550;48.650;8.774;2024-02-26T07:23:39;8.10;99.90
12971;DHT22;6550;48.650;8.774;2024-02-26T07:31:02;8.20;99.90
12971;DHT22;6550;48.650;8.774;2024-02-26T07:33:31;8.20;99.90
12971;DHT22;6550;48.650;8.774;2024-02-26T07:36:00;8.20;99.90
12971;DHT22;6550;48.650;8.774;2024-02-26T07:38:29;8.20;99.90
12971;DHT22;6550;48.650;8.774;2024-02-26T07:41:08;8.30;99.90
12971;DHT22;6550;48.650;8.774;2024-02-26T07:43:35;8.20;99.90
12971;DHT22;6550;48.650;8.774;2024-02-26T07:46:04;8.30;99.90
12971;DHT22;6550;48.650;8.774;2024-02-26T07:48:31;8.30;99.90
12971;DHT22;6550;48.650;8.774;2024-02-26T07:50:58;8.30;99.90
12971;DHT22;6550;48.650;8.774;2024-02-26T07:53:26;8.40;99.90
12971;DHT22;6550;48.650;8.774;2024-02-26T07:55:53;8.60;99.90
12971;DHT22;6550;48.650;8.774;2024-02-26T07:58:23;8.50;99.90
12971;DHT22;6550;48.650;8.774;2024-02-26T08:00:50;8.50;99.90
12971;DHT22;6550;48.650;8.774;2024-02-26T08:03:17;8.90;99.90
12971;DHT22;6550;48.650;8.774;2024-02-26T08:05:44;8.70;99.90
12971;DHT22;6550;48.650;8.774;2024-02-26T08:10:38;8.90;99.90
12971;DHT22;6550;48.650;8.774;2024-02-26T08:13:05;9.00;99.90
12971;DHT22;6550;48.650;8.774;2024-02-26T08:15:35;9.00;99.90
12971;DHT22;6550;48.650;8.774;2024-02-26T08:18:06;9.10;99.90
12971;DHT22;6550;48.650;8.774;2024-02-26T08:23:04;8.80;99.90
12971;DHT22;6550;48.650;8.774;2024-02-26T08:25:33;9.20;99.90
12971;DHT22;6550;48.650;8.774;2024-02-26T08:28:02;9.20;99.90
12971;DHT22;6550;48.650;8.774;2024-02-26T08:30:32;9.30;99.90
12971;DHT22;6550;48.650;8.774;2024-02-26T08:32:59;10.60;99.90
12971;DHT22;6550;48.650;8.774;2024-02-26T08:40:20;9.40;99.90
12971;DHT22;6550;48.650;8.774;2024-02-26T08:45:16;9.20;99.90
12971;DHT22;6550;48.650;8.774;2024-02-26T08:47:47;9.30;99.90
12971;DHT22;6550;48.650;8.774;2024-02-26T08:50:16;9.40;99.90
12971;DHT22;6550;48.650;8.774;2024-02-26T08:52:45;9.20;99.90
12971;DHT22;6550;48.650;8.774;2024-02-26T08:55:19;9.10;99.90
12971;DHT22;6550;48.650;8.774;2024-02-26T08:57:47;9.40;99.90
12971;DHT22;6550;48.650;8.774;2024-02-26T09:00:16;9.10;99.90
12971;DHT22;6550;48.650;8.774;2024-02-26T09:02:44;9.20;99.90
12971;DHT22;6550;48.650;8.774;2024-02-26T09:07:40;9.30;99.90
12971;DHT22;6550;48.650;8.774;2024-02-26T09:10:07;9.70;99.90
12971;DHT22;6550;48.650;8.774;2024-02-26T09:12:40;9.90;99.90
12971;DHT22;6550;48.650;8.774;2024-02-26T09:15:07;9.90;99.90
12971;DHT22;6550;48.650;8.774;2024-02-26T09:17:37;10.00;99.90
12971;DHT22;6550;48.650;8.774;2024-02-26T09:20:06;10.20;99.90
12971;DHT22;6550;48.650;8.774;2024-02-26T09:22:41;10.20;99.90
12971;DHT22;6550;48.650;8.774;2024-02-26T09:25:09;10.30;99.90
12971;DHT22;6550;48.650;8.774;2024-02-26T09:27:35;10.30;99.90
12971;DHT22;6550;48.650;8.774;2024-02-26T09:30:10;10.40;99.90
12971;DHT22;6550;48.650;8.774;2024-02-26T09:32:37;10.40;99.90
12971;DHT22;6550;48.650;8.774;2024-02-26T09:35:04;11.00;99.90
12971;DHT22;6550;48.650;8.774;2024-02-26T09:37:31;10.80;99.90
12971;DHT22;6550;48.650;8.774;2024-02-26T09:40:00;10.60;99.90
12971;DHT22;6550;48.650;8.774;2024-02-26T09:47:23;11.00;99.90
12971;DHT22;6550;48.650;8.774;2024-02-26T09:49:55;11.30;99.90
12971;DHT22;6550;48.650;8.774;2024-02-26T09:52:24;11.40;99.90
12971;DHT22;6550;48.650;8.774;2024-02-26T09:54:54;11.50;99.90
12971;DHT22;6550;48.650;8.774;2024-02-26T09:57:23;11.50;99.90
12971;DHT22;6550;48.650;8.774;2024-02-26T09:59:53;11.90;99.90
12971;DHT22;6550;48.650;8.774;2024-02-26T10:02:23;11.70;99.90
12971;DHT22;6550;48.650;8.774;2024-02-26T10:04:50;11.70;99.90
12971;DHT22;6550;48.650;8.774;2024-02-26T10:09:52;11.90;99.90
12971;DHT22;6550;48.650;8.774;2024-02-26T10:12:25;11.80;99.90
12971;DHT22;6550;48.650;8.774;2024-02-26T10:14:54;11.80;99.90
12971;DHT22;6550;48.650;8.774;2024-02-26T10:17:21;11.90;99.90
12971;DHT22;6550;48.650;8.774;2024-02-26T10:19:50;11.90;99.90
12971;DHT22;6550;48.650;8.774;2024-02-26T10:22:22;11.90;99.90
12971;DHT22;6550;48.650;8.774;2024-02-26T10:24:49;12.00;99.90
12971;DHT22;6550;48.650;8.774;2024-02-26T10:29:45;12.20;99.90
12971;DHT22;6550;48.650;8.774;2024-02-26T10:32:13;12.20;99.90
12971;DHT22;6550;48.650;8.774;2024-02-26T10:34:40;12.30;99.90
12971;DHT22;6550;48.650;8.774;2024-02-26T10:37:09;12.40;99.90
12971;DHT22;6550;48.650;8.774;2024-02-26T10:39:36;12.40;99.90
12971;DHT22;6550;48.650;8.774;2024-02-26T10:42:04;12.90;99.90
12971;DHT22;6550;48.650;8.774;2024-02-26T10:44:39;12.60;99.90
12971;DHT22;6550;48.650;8.774;2024-02-26T10:47:07;12.70;99.90
12971;DHT22;6550;48.650;8.774;2024-02-26T10:49:35;12.60;99.90
12971;DHT22;6550;48.650;8.774;2024-02-26T10:52:06;13.00;99.90
12971;DHT22;6550;48.650;8.774;2024-02-26T10:54:35;12.80;99.90
12971;DHT22;6550;48.650;8.774;2024-02-26T10:57:07;13.00;99.90
12971;DHT22;6550;48.650;8.774;2024-02-26T10:59:38;12.90;99.90
12971;DHT22;6550;48.650;8.774;2024-02-26T11:02:09;13.20;99.90
12971;DHT22;6550;48.650;8.774;2024-02-26T11:04:37;13.30;99.90
12971;DHT22;6550;48.650;8.774;2024-02-26T11:07:05;13.30;99.90
12971;DHT22;6550;48.650;8.774;2024-02-26T11:09:37;13.50;99.90
12971;DHT22;6550;48.650;8.774;2024-02-26T11:12:12;13.60;99.90
12971;DHT22;6550;48.650;8.774;2024-02-26T11:14:40;15.10;99.90
12971;DHT22;6550;48.650;8.774;2024-02-26T11:17:13;13.90;99.90
12971;DHT22;6550;48.650;8.774;2024-02-26T11:19:43;14.00;99.90
12971;DHT22;6550;48.650;8.774;2024-02-26T11:22:14;14.20;99.90
12971;DHT22;6550;48.650;8.774;2024-02-26T11:24:53;14.30;99.90
12971;DHT22;6550;48.650;8.774;2024-02-26T11:27:26;14.60;99.90
12971;DHT22;6550;48.650;8.774;2024-02-26T11:29:58;14.60;99.90
12971;DHT22;6550;48.650;8.774;2024-02-26T11:32:27;14.50;99.90
12971;DHT22;6550;48.650;8.774;2024-02-26T11:34:58;14.80;99.90
12971;DHT22;6550;48.650;8.774;2024-02-26T11:37:25;15.20;99.90
12971;DHT22;6550;48.650;8.774;2024-02-26T11:42:27;15.00;99.90
12971;DHT22;6550;48.650;8.774;2024-02-26T11:44:56;15.10;99.90
12971;DHT22;6550;48.650;8.774;2024-02-26T11:47:27;15.10;99.90
12971;DHT22;6550;48.650;8.774;2024-02-26T11:49:54;14.90;99.90
12971;DHT22;6550;48.650;8.774;2024-02-26T11:52:21;15.10;99.90
12971;DHT22;6550;48.650;8.774;2024-02-26T11:54:56;16.00;99.90
12971;DHT22;6550;48.650;8.774;2024-02-26T12:00:20;15.00;99.80
12971;DHT22;6550;48.650;8.774;2024-02-26T12:02:51;14.90;99.90
12971;DHT22;6550;48.650;8.774;2024-02-26T12:08:04;15.00;99.90
12971;DHT22;6550;48.650;8.774;2024-02-26T12:10:39;15.00;99.90
12971;DHT22;6550;48.650;8.774;2024-02-26T12:13:17;15.00;99.90
12971;DHT22;6550;48.650;8.774;2024-02-26T12:15:57;15.00;99.90
12971;DHT22;6550;48.650;8.774;2024-02-26T12:21:00;15.00;99.50
12971;DHT22;6550;48.650;8.774;2024-02-26T12:23:30;15.00;99.40
12971;DHT22;6550;48.650;8.774;2024-02-26T12:26:03;15.50;99.80
12971;DHT22;6550;48.650;8.774;2024-02-26T12:28:36;14.80;99.90
12971;DHT22;6550;48.650;8.774;2024-02-26T12:31:04;15.00;99.90
12971;DHT22;6550;48.650;8.774;2024-02-26T12:33:34;14.80;99.90
12971;DHT22;6550;48.650;8.774;2024-02-26T12:36:01;15.20;99.90
12971;DHT22;6550;48.650;8.774;2024-02-26T12:38:28;15.00;99.90
12971;DHT22;6550;48.650;8.774;2024-02-26T12:41:02;15.00;99.90
12971;DHT22;6550;48.650;8.774;2024-02-26T12:43:30;15.50;99.90
12971;DHT22;6550;48.650;8.774;2024-02-26T12:45:59;15.00;99.90
12971;DHT22;6550;48.650;8.774;2024-02-26T12:48:29;15.30;99.90
12971;DHT22;6550;48.650;8.774;2024-02-26T12:53:23;15.30;99.80
12971;DHT22;6550;48.650;8.774;2024-02-26T12:55:53;15.60;99.90
12971;DHT22;6550;48.650;8.774;2024-02-26T12:58:21;15.90;99.90
12971;DHT22;6550;48.650;8.774;2024-02-26T13:00:52;15.60;99.90
12971;DHT22;6550;48.650;8.774;2024-02-26T13:03:19;15.90;99.80
12971;DHT22;6550;48.650;8.774;2024-02-26T13:05:49;16.00;99.40
12971;DHT22;6550;48.650;8.774;2024-02-26T13:08:23;16.10;99.10
12971;DHT22;6550;48.650;8.774;2024-02-26T13:13:27;16.20;98.30
12971;DHT22;6550;48.650;8.774;2024-02-26T13:16:08;16.40;98.70
12971;DHT22;6550;48.650;8.774;2024-02-26T13:18:35;16.40;98.30
12971;DHT22;6550;48.650;8.774;2024-02-26T13:21:14;16.40;98.00
12971;DHT22;6550;48.650;8.774;2024-02-26T13:23:48;16.40;98.70
12971;DHT22;6550;48.650;8.774;2024-02-26T13:26:18;16.40;98.80
12971;DHT22;6550;48.650;8.774;2024-02-26T13:28:48;16.40;98.70
12971;DHT22;6550;48.650;8.774;2024-02-26T13:31:25;16.30;98.40
12971;DHT22;6550;48.650;8.774;2024-02-26T13:33:51;16.00;98.70
12971;DHT22;6550;48.650;8.774;2024-02-26T13:36:23;16.10;98.70
12971;DHT22;6550;48.650;8.774;2024-02-26T13:38:55;16.20;98.90
12971;DHT22;6550;48.650;8.774;2024-02-26T13:43:50;16.10;99.90
12971;DHT22;6550;48.650;8.774;2024-02-26T13:46:17;16.10;99.90
12971;DHT22;6550;48.650;8.774;2024-02-26T13:48:48;16.20;99.90
12971;DHT22;6550;48.650;8.774;2024-02-26T13:51:18;16.20;99.20
12971;DHT22;6550;48.650;8.774;2024-02-26T13:53:45;16.10;99.40
12971;DHT22;6550;48.650;8.774;2024-02-26T13:56:16;16.30;98.40
12971;DHT22;6550;48.650;8.774;2024-02-26T13:58:43;16.30;99.00
12971;DHT22;6550;48.650;8.774;2024-02-26T14:06:06;16.40;98.50
12971;DHT22;6550;48.650;8.774;2024-02-26T14:08:33;16.40;99.10
12971;DHT22;6550;48.650;8.774;2024-02-26T14:11:00;16.40;99.20
12971;DHT22;6550;48.650;8.774;2024-02-26T14:13:27;16.20;98.70
12971;DHT22;6550;48.650;8.774;2024-02-26T14:15:56;16.10;98.50
12971;DHT22;6550;48.650;8.774;2024-02-26T14:18:23;16.10;99.90
12971;DHT22;6550;48.650;8.774;2024-02-26T14:20:51;16.00;99.90
12971;DHT22;6550;48.650;8.774;2024-02-26T14:23:20;15.90;99.90
12971;DHT22;6550;48.650;8.774;2024-02-26T14:28:14;15.50;99.90
12971;DHT22;6550;48.650;8.774;2024-02-26T14:30:51;15.60;99.90
12971;DHT22;6550;48.650;8.774;2024-02-26T14:33:18;16.10;99.90
12971;DHT22;6550;48.650;8.774;2024-02-26T14:35:45;15.40;99.70
12971;DHT22;6550;48.650;8.774;2024-02-26T14:38:14;15.40;99.90
12971;DHT22;6550;48.650;8.774;2024-02-26T14:45:38;15.30;99.90
12971;DHT22;6550;48.650;8.774;2024-02-26T14:48:05;15.80;99.90
12971;DHT22;6550;48.650;8.774;2024-02-26T14:50:32;15.10;99.90
12971;DHT22;6550;48.650;8.774;2024-02-26T14:53:01;15.20;99.90
12971;DHT22;6550;48.650;8.774;2024-02-26T14:55:29;15.20;99.90
12971;DHT22;6550;48.650;8.774;2024-02-26T14:57:55;15.10;99.90
12971;DHT22;6550;48.650;8.774;2024-02-26T15:00:22;15.10;99.90
12971;DHT22;6550;48.650;8.774;2024-02-26T15:02:51;15.20;99.90
12971;DHT22;6550;48.650;8.774;2024-02-26T15:05:20;15.40;99.90
12971;DHT22;6550;48.650;8.774;2024-02-26T15:07:50;15.10;99.90
12971;DHT22;6550;48.650;8.774;2024-02-26T15:10:17;15.00;99.90
12971;DHT22;6550;48.650;8.774;2024-02-26T15:12:45;15.20;99.90
12971;DHT22;6550;48.650;8.774;2024-02-26T15:15:12;15.10;99.90
12971;DHT22;6550;48.650;8.774;2024-02-26T15:17:42;15.10;99.90
12971;DHT22;6550;48.650;8.774;2024-02-26T15:20:09;15.00;99.90
12971;DHT22;6550;48.650;8.774;2024-02-26T15:22:37;15.00;99.90
12971;DHT22;6550;48.650;8.774;2024-02-26T15:25:05;15.00;99.90
12971;DHT22;6550;48.650;8.774;2024-02-26T15:27:31;15.10;99.90
12971;DHT22;6550;48.650;8.774;2024-02-26T15:30:01;15.00;99.90
12971;DHT22;6550;48.650;8.774;2024-02-26T15:32:30;15.10;99.90
12971;DHT22;6550;48.650;8.774;2024-02-26T15:34:57;15.10;99.90
12971;DHT22;6550;48.650;8.774;2024-02-26T15:37:27;15.00;99.90
12971;DHT22;6550;48.650;8.774;2024-02-26T15:39:56;15.00;99.90
12971;DHT22;6550;48.650;8.774;2024-02-26T15:42:23;15.10;99.90
12971;DHT22;6550;48.650;8.774;2024-02-26T15:44:49;15.00;99.90
12971;DHT22;6550;48.650;8.774;2024-02-26T15:47:16;15.00;99.90
12971;DHT22;6550;48.650;8.774;2024-02-26T15:49:46;15.00;99.90
12971;DHT22;6550;48.650;8.774;2024-02-26T15:52:13;14.90;99.90
12971;DHT22;6550;48.650;8.774;2024-02-26T15:54:40;14.90;99.90
12971;DHT22;6550;48.650;8.774;2024-02-26T15:57:07;15.30;99.90
12971;DHT22;6550;48.650;8.774;2024-02-26T15:59:36;14.80;99.90
12971;DHT22;6550;48.650;8.774;2024-02-26T16:02:05;14.70;99.90
12971;DHT22;6550;48.650;8.774;2024-02-26T16:07:03;14.60;99.90
12971;DHT22;6550;48.650;8.774;2024-02-26T16:09:35;14.50;99.90
12971;DHT22;6550;48.650;8.774;2024-02-26T16:12:09;14.30;99.90
12971;DHT22;6550;48.650;8.774;2024-02-26T16:17:17;14.30;99.90
12971;DHT22;6550;48.650;8.774;2024-02-26T16:19:44;14.30;99.90
12971;DHT22;6550;48.650;8.774;2024-02-26T16:27:10;14.10;99.90
12971;DHT22;6550;48.650;8.774;2024-02-26T16:29:36;14.00;99.90
12971;DHT22;6550;48.650;8.774;2024-02-26T16:32:04;13.90;99.90
12971;DHT22;6550;48.650;8.774;2024-02-26T16:37:08;13.90;99.90
12971;DHT22;6550;48.650;8.774;2024-02-26T16:39:38;13.80;99.90
12971;DHT22;6550;48.650;8.774;2024-02-26T16:42:11;13.50;99.90
12971;DHT22;6550;48.650;8.774;2024-02-26T16:44:39;13.80;99.90
12971;DHT22;6550;48.650;8.774;2024-02-26T16:47:08;13.90;99.90
12971;DHT22;6550;48.650;8.774;2024-02-26T16:52:07;13.50;99.90
12971;DHT22;6550;48.650;8.774;2024-02-26T16:54:34;13.20;99.90
12971;DHT22;6550;48.650;8.774;2024-02-26T16:57:03;14.00;99.90
12971;DHT22;6550;48.650;8.774;2024-02-26T16:59:30;13.40;99.90
12971;DHT22;6550;48.650;8.774;2024-02-26T17:02:02;13.40;99.90
12971;DHT22;6550;48.650;8.774;2024-02-26T17:06:59;13.40;99.90
12971;DHT22;6550;48.650;8.774;2024-02-26T17:09:26;14.30;99.90
12971;DHT22;6550;48.650;8.774;2024-02-26T17:11:53;14.10;99.90
12971;DHT22;6550;48.650;8.774;2024-02-26T17:14:25;13.80;99.90
12971;DHT22;6550;48.650;8.774;2024-02-26T17:16:52;13.60;99.90
12971;DHT22;6550;48.650;8.774;2024-02-26T17:19:19;13.40;99.90
12971;DHT22;6550;48.650;8.774;2024-02-26T17:21:46;13.30;99.90
12971;DHT22;6550;48.650;8.774;2024-02-26T17:24:16;13.10;99.90
12971;DHT22;6550;48.650;8.774;2024-02-26T17:26:45;13.10;99.90
12971;DHT22;6550;48.650;8.774;2024-02-26T17:29:12;13.00;99.90
12971;DHT22;6550;48.650;8.774;2024-02-26T17:31:41;13.00;99.90
12971;DHT22;6550;48.650;8.774;2024-02-26T17:34:12;12.80;99.90
12971;DHT22;6550;48.650;8.774;2024-02-26T17:36:39;13.00;99.90
12971;DHT22;6550;48.650;8.774;2024-02-26T17:39:06;12.90;99.90
12971;DHT22;6550;48.650;8.774;2024-02-26T17:41:33;13.20;99.90
12971;DHT22;6550;48.650;8.774;2024-02-26T17:44:00;12.90;99.90
12971;DHT22;6550;48.650;8.774;2024-02-26T17:46:26;12.80;99.90
12971;DHT22;6550;48.650;8.774;2024-02-26T17:48:54;12.80;99.90
12971;DHT22;6550;48.650;8.774;2024-02-26T17:51:24;12.90;99.90
12971;DHT22;6550;48.650;8.774;2024-02-26T17:53:51;12.50;99.90